Latest Weather Observations for Mardie

IDW60801

Issued at 12:08 pm WST Thursday 30 July 2015 (issued every 30 minutes, with the page automatically refreshed every 10 minutes)

About weather observations | Map of weather stations | Latest weather observations for WA | Other Formats
Station Details ID: 005008 Name: MARDIE Lat: -21.19 Lon: 115.98 Height: 11.0 m
Data from the previous 72 hours. | See also: Recent months at Mardie
Date/Time
WST
Temp
°C
App
Temp
°C
Dew
Point
Rel
Hum
%
Delta-T
°C
Wind Press
QNH
hPa
Press
MSL
hPa
Rain
since 9 am
mm
Dir
 
Spd
km/h
Gust
km/h
Spd
kts
Gust
kts
30/12:00pm 32.1 31.0 10.8 27 12.3 N 7 17 4 9 1018.5 1018.4 0.0
30/11:30am 31.5 30.5 10.2 27 12.1 NNE 6 15 3 8 1019.0 1018.9 0.0
30/11:00am 30.8 29.8 10.2 28 11.7 NE 6 11 3 6 1019.5 1019.4 0.0
30/10:30am 29.8 29.1 9.9 29 11.2 NE 4 13 2 7 1019.8 1019.7 0.0
30/10:00am 28.6 27.0 10.3 32 10.3 ESE 9 13 5 7 1020.0 1019.9 0.0
30/09:30am 27.5 25.9 10.2 34 9.7 ESE 9 15 5 8 1019.9 1019.8 0.0
30/09:00am 25.4 24.2 11.6 42 7.8 ESE 9 11 5 6 1019.8 1019.7 0.0
30/08:30am 23.4 22.9 12.1 49 6.4 SE 6 7 3 4 1019.5 1019.4 0.0
30/08:00am 21.3 20.8 12.7 58 4.9 SE 7 9 4 5 1019.3 1019.2 0.0
30/07:30am 18.8 18.2 12.3 66 3.6 ESE 7 9 4 5 1018.9 1018.8 0.0
30/07:00am 16.7 15.4 11.2 70 3.0 SE 9 11 5 6 1018.5 1018.4 0.0
30/06:30am 16.6 15.2 10.9 69 3.1 SSE 9 9 5 5 1018.3 1018.2 0.0
30/06:00am 16.5 15.5 11.0 70 2.9 SSE 7 9 4 5 1017.9 1017.8 0.0
30/05:30am 16.9 16.0 11.2 69 3.1 S 7 7 4 4 1017.7 1017.6 0.0
30/05:00am 17.3 16.7 11.8 70 3.0 S 6 7 3 4 1017.6 1017.5 0.0
30/04:30am 17.1 16.5 11.6 70 3.0 E 6 6 3 3 1017.6 1017.5 0.0
30/04:00am 17.5 16.8 12.0 70 3.0 E 7 7 4 4 1017.5 1017.4 0.0
30/03:30am 17.6 16.8 11.6 68 3.3 ESE 7 9 4 5 1017.8 1017.7 0.0
30/03:00am 17.9 17.4 11.9 68 3.3 ESE 6 6 3 3 1018.1 1018.0 0.0
30/02:30am 17.7 17.5 11.9 69 3.2 ESE 4 4 2 2 1018.3 1018.2 0.0
30/02:00am 18.0 17.5 12.0 68 3.3 ESE 6 6 3 3 1018.4 1018.3 0.0
30/01:30am 18.2 17.5 12.0 67 3.4 ESE 7 9 4 5 1018.5 1018.4 0.0
30/01:00am 18.5 17.7 11.6 64 3.8 SE 7 9 4 5 1018.8 1018.7 0.0
30/12:30am 19.3 18.5 11.8 62 4.1 SE 7 9 4 5 1018.8 1018.7 0.0
30/12:00am 18.9 18.3 12.2 65 3.7 S 7 11 4 6 1019.0 1018.9 0.0
 
Date/Time
WST
Temp
°C
App
Temp
°C
Dew
Point
Rel
Hum
%
Delta-T
°C
Wind Press
QNH
hPa
Press
MSL
hPa
Rain
since 9 am
mm
Dir
 
Spd
km/h
Gust
km/h
Spd
kts
Gust
kts
29/11:30pm 19.5 19.0 12.0 62 4.2 S 6 6 3 3 1019.1 1019.0 0.0
29/11:00pm 19.6 19.1 12.1 62 4.2 S 6 7 3 4 1019.3 1019.2 0.0
29/10:30pm 19.6 18.9 12.1 62 4.2 S 7 9 4 5 1019.3 1019.2 0.0
29/10:00pm 20.3 19.8 12.5 61 4.4 S 7 9 4 5 1019.3 1019.2 0.0
29/09:30pm 20.8 20.4 13.0 61 4.4 SSW 7 9 4 5 1019.3 1019.2 0.0
29/09:00pm 21.2 20.8 12.9 59 4.7 NNW 7 9 4 5 1019.3 1019.2 0.0
29/08:30pm 21.7 21.7 12.5 56 5.2 NNW 4 4 2 2 1019.2 1019.1 0.0
29/08:00pm 22.1 23.0 12.9 56 5.2 CALM 0 2 0 1 1019.0 1018.9 0.0
29/07:30pm 23.0 24.1 13.5 55 5.5 CALM 0 0 0 0 1018.5 1018.4 0.0
29/07:00pm 23.6 24.7 13.5 53 5.9 CALM 0 0 0 0 1018.2 1018.1 0.0
29/06:30pm 24.4 25.3 13.9 52 6.2 NNW 2 6 1 3 1017.9 1017.8 0.0
29/06:00pm 25.5 25.4 13.4 47 7.1 NNW 6 11 3 6 1017.5 1017.4 0.0
29/05:30pm 27.3 26.2 12.1 39 8.8 N 9 17 5 9 1017.2 1017.1 0.0
29/05:00pm 28.9 26.4 11.0 33 10.2 N 15 20 8 11 1017.0 1016.9 0.0
29/04:30pm 29.3 26.9 11.4 33 10.3 N 15 24 8 13 1017.0 1016.9 0.0
29/04:00pm 30.1 27.1 10.6 30 11.1 N 17 24 9 13 1017.0 1016.9 0.0
29/03:30pm 30.5 27.5 10.5 29 11.4 N 17 22 9 12 1017.1 1017.0 0.0
29/03:00pm 31.3 28.4 9.5 26 12.3 N 15 22 8 12 1017.2 1017.1 0.0
29/02:30pm 31.7 28.8 9.8 26 12.4 NNW 15 24 8 13 1017.2 1017.1 0.0
29/02:00pm 33.3 30.5 10.0 24 13.4 N 15 22 8 12 1017.1 1017.0 0.0
29/01:30pm 33.3 30.9 8.7 22 13.8 ENE 11 30 6 16 1017.4 1017.3 0.0
29/01:00pm 33.4 31.7 7.4 20 14.3 NE 6 20 3 11 1017.9 1017.8 0.0
29/12:30pm 32.7 30.6 8.2 22 13.6 ESE 9 22 5 12 1018.3 1018.2 0.0
29/12:00pm 31.9 29.0 8.2 23 13.1 E 13 24 7 13 1018.9 1018.8 0.0
29/11:30am 31.4 28.9 8.4 24 12.8 E 11 20 6 11 1019.4 1019.3 0.0
29/11:00am 30.8 28.8 8.5 25 12.3 ESE 9 19 5 10 1019.8 1019.7 0.0
29/10:30am 30.1 26.9 8.5 26 11.9 ESE 15 20 8 11 1020.1 1020.0 0.0
29/10:00am 29.1 27.4 9.8 30 10.8 SE 9 13 5 7 1020.4 1020.3 0.0
29/09:30am 27.7 25.5 9.5 32 10.1 ESE 11 19 6 10 1020.4 1020.3 0.0
29/09:00am 25.4 24.4 10.4 39 8.3 SE 6 9 3 5 1020.4 1020.3 0.0
29/08:30am 23.0 22.7 11.4 48 6.5 SE 4 6 2 3 1020.2 1020.1 0.0
29/08:00am 20.4 20.5 11.6 57 4.9 SE 2 4 1 2 1020.0 1019.9 0.0
29/07:30am 18.0 17.2 11.8 67 3.4 SE 7 9 4 5 1019.6 1019.5 0.0
29/07:00am 16.1 14.4 11.3 73 2.6 SE 11 11 6 6 1019.2 1019.1 0.0
29/06:30am 15.2 13.7 10.4 73 2.5 SE 9 11 5 6 1018.9 1018.8 0.0
29/06:00am 15.4 14.7 10.2 71 2.7 SSE 4 7 2 4 1018.8 1018.7 0.0
29/05:30am 15.9 14.9 10.4 70 2.9 SSE 6 6 3 3 1018.7 1018.6 0.0
29/05:00am 16.2 15.4 10.9 71 2.8 SSE 6 7 3 4 1018.6 1018.5 0.0
29/04:30am 16.1 15.0 10.8 71 2.8 SE 7 9 4 5 1018.5 1018.4 0.0
29/04:00am 16.0 14.9 10.5 70 2.9 SE 7 9 4 5 1018.6 1018.5 0.0
29/03:30am 16.4 15.3 10.7 69 3.0 SE 7 9 4 5 1018.8 1018.7 0.0
29/03:00am 16.5 15.5 11.0 70 2.9 SE 7 9 4 5 1018.9 1018.8 0.0
29/02:30am 16.7 15.7 11.0 69 3.1 SE 7 9 4 5 1019.1 1019.0 0.0
29/02:00am 16.9 15.1 11.0 68 3.2 SSE 11 11 6 6 1019.3 1019.2 0.0
29/01:30am 17.0 16.0 11.1 68 3.2 SSE 7 9 4 5 1019.6 1019.5 0.0
29/01:00am 17.3 16.0 11.3 68 3.2 SSE 9 9 5 5 1019.9 1019.8 0.0
29/12:30am 17.9 16.8 11.9 68 3.3 S 9 11 5 6 1020.0 1019.9 0.0
29/12:00am 17.2 15.8 11.0 67 3.3 NNW 9 9 5 5 1020.2 1020.1 0.0
 
Date/Time
WST
Temp
°C
App
Temp
°C
Dew
Point
Rel
Hum
%
Delta-T
°C
Wind Press
QNH
hPa
Press
MSL
hPa
Rain
since 9 am
mm
Dir
 
Spd
km/h
Gust
km/h
Spd
kts
Gust
kts
28/11:30pm 17.8 17.2 11.6 67 3.4 NNW 6 7 3 4 1020.5 1020.4 0.0
28/11:00pm 18.0 16.9 11.8 67 3.4 NNW 9 9 5 5 1020.7 1020.6 0.0
28/10:30pm 18.3 17.9 12.3 68 3.3 N 6 6 3 3 1020.7 1020.6 0.0
28/10:00pm 18.6 19.0 12.4 67 3.4 N 2 6 1 3 1020.4 1020.3 0.0
28/09:30pm 19.9 21.0 13.4 66 3.7 CALM 0 0 0 0 1020.3 1020.2 0.0
28/09:00pm 20.2 21.3 13.6 66 3.8 CALM 0 2 0 1 1020.3 1020.2 0.0
28/08:30pm 20.8 21.1 14.5 67 3.7 N 6 6 3 3 1020.3 1020.2 0.0
28/08:00pm 20.9 20.8 13.4 62 4.3 N 6 9 3 5 1020.2 1020.1 0.0
28/07:30pm 21.9 22.2 13.3 58 4.9 N 4 6 2 3 1020.1 1020.0 0.0
28/07:00pm 22.9 22.6 12.8 53 5.8 N 6 11 3 6 1019.8 1019.7 0.0
28/06:30pm 24.1 23.2 10.7 43 7.4 N 6 9 3 5 1019.4 1019.3 0.0
28/06:00pm 26.3 24.5 9.6 35 9.2 N 9 13 5 7 1019.0 1018.9 0.0
28/05:30pm 27.8 25.1 9.1 31 10.3 N 13 19 7 10 1018.9 1018.8 0.0
28/05:00pm 29.2 26.2 9.3 29 11.1 N 15 22 8 12 1018.4 1018.3 0.0
28/04:30pm 29.7 26.3 9.3 28 11.4 N 17 24 9 13 1018.1 1018.0 0.0
28/04:00pm 30.8 27.0 9.1 26 12.1 NNE 19 28 10 15 1018.0 1017.9 0.0
28/03:30pm 31.6 27.5 8.6 24 12.8 NNE 20 28 11 15 1017.9 1017.8 0.0
28/03:00pm 31.5 27.0 8.5 24 12.8 NNE 22 32 12 17 1017.9 1017.8 0.0
28/02:30pm 31.9 27.5 8.8 24 12.9 NNE 22 33 12 18 1018.1 1018.0 0.0
28/02:00pm 32.5 28.1 6.7 20 14.0 NE 19 33 10 18 1018.2 1018.1 0.0
28/01:30pm 32.3 26.9 6.5 20 13.9 ENE 24 35 13 19 1018.4 1018.3 0.0
28/01:00pm 31.8 26.7 7.5 22 13.3 NE 24 33 13 18 1019.0 1018.9 0.0
28/12:30pm 31.7 26.5 7.4 22 13.3 NE 24 33 13 18 1019.5 1019.4 0.0
28/12:00pm 30.8 25.2 7.3 23 12.7 NE 26 32 14 17 1020.2 1020.1 0.0
28/11:30am 30.5 25.4 7.7 24 12.4 ENE 24 32 13 17 1020.7 1020.6 0.0
28/11:00am 29.5 24.0 7.4 25 11.9 ENE 26 33 14 18 1020.9 1020.8 0.0
28/10:30am 28.8 23.6 7.4 26 11.5 ENE 24 33 13 18 1021.3 1021.2 0.0
28/10:00am 27.7 22.1 7.0 27 11.0 ENE 26 35 14 19 1021.6 1021.5 0.0
28/09:30am 26.1 21.7 6.7 29 10.2 E 19 26 10 14 1021.7 1021.6 0.0
28/09:00am 23.8 19.2 5.7 31 9.1 E 19 24 10 13 1021.7 1021.6 0.0
28/08:30am 22.1 17.2 5.1 33 8.4 ESE 20 24 11 13 1021.6 1021.5 0.0
28/08:00am 20.6 15.6 4.6 35 7.7 ESE 20 26 11 14 1021.5 1021.4 0.0
28/07:30am 19.4 14.6 4.4 37 7.2 ESE 19 26 10 14 1021.3 1021.2 0.0
28/07:00am 18.5 14.0 4.3 39 6.7 ESE 17 22 9 12 1021.3 1021.2 0.0
28/06:30am 18.5 14.0 4.3 39 6.8 ESE 17 20 9 11 1021.1 1021.0 0.0
28/06:00am 18.5 14.0 4.3 39 6.7 ESE 17 20 9 11 1020.5 1020.4 0.0
28/05:30am 18.6 14.1 4.4 39 6.8 ESE 17 22 9 12 1020.2 1020.1 0.0
28/05:00am 18.4 14.3 4.6 40 6.6 ESE 15 19 8 10 1019.9 1019.8 0.0
28/04:30am 18.4 14.3 4.6 40 6.6 ESE 15 19 8 10 1019.8 1019.7 0.0
28/04:00am 18.4 14.3 4.6 40 6.6 ESE 15 17 8 9 1019.9 1019.8 0.0
28/03:30am 18.5 14.8 4.7 40 6.6 ESE 13 15 7 8 1020.0 1019.9 0.0
28/03:00am 19.0 14.9 4.4 38 7.0 ESE 15 19 8 10 1020.1 1020.0 0.0
28/02:30am 19.9 15.4 4.4 36 7.5 ESE 17 20 9 11 1020.1 1020.0 0.0
28/02:00am 20.1 15.7 5.0 37 7.3 ESE 17 20 9 11 1020.3 1020.2 0.0
28/01:30am 20.3 15.7 5.5 38 7.3 ESE 19 24 10 13 1020.5 1020.4 0.0
28/01:00am 19.7 16.6 7.1 44 6.4 ESE 13 19 7 10 1020.6 1020.5 0.0
28/12:30am 18.5 16.1 8.7 53 5.1 ESE 11 13 6 7 1020.6 1020.5 0.0
28/12:00am 19.1 16.4 9.0 52 5.3 ESE 13 15 7 8 1020.9 1020.8 0.0
 
Date/Time
WST
Temp
°C
App
Temp
°C
Dew
Point
Rel
Hum
%
Delta-T
°C
Wind Press
QNH
hPa
Press
MSL
hPa
Rain
since 9 am
mm
Dir
 
Spd
km/h
Gust
km/h
Spd
kts
Gust
kts
27/11:30pm 18.1 16.1 10.0 59 4.3 SE 11 13 6 7 1021.4 1021.3 0.0
27/11:00pm 17.6 16.9 11.4 67 3.4 NE 6 6 3 3 1021.6 1021.5 0.0
27/10:30pm 17.7 17.8 11.5 67 3.4 NE 2 4 1 2 1021.5 1021.4 0.0
27/10:00pm 18.1 17.9 11.7 66 3.5 NE 4 4 2 2 1021.4 1021.3 0.0
27/09:30pm 18.3 17.7 11.6 65 3.7 NE 6 6 3 3 1021.2 1021.1 0.0
27/09:00pm 19.2 19.1 12.0 63 4.0 NE 4 4 2 2 1021.1 1021.0 0.0
27/08:30pm 20.0 19.5 12.5 62 4.2 NE 7 9 4 5 1020.8 1020.7 0.0
27/08:00pm 20.4 20.4 14.1 67 3.6 NNE 7 9 4 5 1020.4 1020.3 0.0
27/07:30pm 20.9 20.4 13.8 64 4.1 NNE 9 9 5 5 1020.1 1020.0 0.0
27/07:00pm 21.7 21.2 12.8 57 5.1 NNE 7 9 4 5 1019.9 1019.8 0.0
27/06:30pm 22.8 21.7 12.1 51 6.1 N 9 11 5 6 1019.6 1019.5 0.0
27/06:00pm 24.2 22.4 10.8 43 7.4 N 11 17 6 9 1019.2 1019.1 0.0
27/05:30pm 25.6 23.5 11.0 40 8.2 N 13 19 7 10 1019.1 1019.0 0.0
27/05:00pm 27.3 25.4 10.5 35 9.4 N 11 20 6 11 1019.0 1018.9 0.0
27/04:30pm 29.0 27.3 9.7 30 10.8 NNE 9 19 5 10 1018.8 1018.7 0.0
27/04:00pm 29.9 25.7 5.9 22 12.6 E 17 26 9 14 1018.6 1018.5 0.0
27/03:30pm 29.7 26.0 6.4 23 12.4 ENE 15 22 8 12 1018.9 1018.8 0.0
27/03:00pm 29.3 25.2 6.0 23 12.3 E 17 24 9 13 1019.0 1018.9 0.0
27/02:30pm 29.1 24.6 5.9 23 12.2 E 19 24 10 13 1019.2 1019.1 0.0
27/02:00pm 29.0 24.6 6.4 24 11.9 ENE 19 30 10 16 1019.5 1019.4 0.0
27/01:30pm 28.1 23.6 6.2 25 11.5 E 19 26 10 14 1020.1 1020.0 0.0
27/01:00pm 27.7 23.0 5.9 25 11.3 E 20 30 11 16 1020.7 1020.6 0.0
27/12:30pm 27.9 22.4 6.1 25 11.4 ENE 24 32 13 17 1021.1 1021.0 0.0

Other Formats:

Comma delimited format used in spreadsheet applications
http://www.bom.gov.au/fwo/IDW60801/IDW60801.94306.axf

JavaScript Object Notation format (JSON) in row-major order
http://www.bom.gov.au/fwo/IDW60801/IDW60801.94306.json